createdAt,value
2022-09-11T00:00:52.327Z,101420.94
2022-09-11T00:03:40.452Z,101417.50
2022-09-11T00:06:29.672Z,101423.72
2022-09-11T00:09:17.459Z,101420.09
2022-09-11T00:11:58.710Z,101414.78
2022-09-11T00:14:45.486Z,101420.06
2022-09-11T00:17:26.678Z,101420.97
2022-09-11T00:20:14.220Z,101417.56
2022-09-11T00:22:56.889Z,101418.50
2022-09-11T00:25:46.363Z,101413.25
2022-09-11T00:28:30.922Z,101422.09
2022-09-11T00:31:30.228Z,101404.47
2022-09-11T00:34:11.711Z,101406.16
2022-09-11T00:36:58.503Z,101395.72
2022-09-11T00:39:40.362Z,101400.94
2022-09-11T00:42:33.050Z,101396.66
2022-09-11T00:45:17.454Z,101395.72
2022-09-11T00:48:06.495Z,101392.03
2022-09-11T00:50:51.305Z,101392.91
2022-09-11T00:53:43.959Z,101387.84
2022-09-11T00:56:26.080Z,101388.69
2022-09-11T00:59:15.463Z,101386.09
2022-09-11T01:02:10.868Z,101393.00
2022-09-11T01:04:57.842Z,101390.28
2022-09-11T01:07:41.132Z,101383.25
2022-09-11T01:10:37.466Z,101379.03
2022-09-11T01:14:40.111Z,101373.69
2022-09-11T01:17:49.599Z,101376.28
2022-09-11T01:20:43.738Z,101372.94
2022-09-11T01:23:46.458Z,101371.84
2022-09-11T01:27:05.354Z,101373.72
2022-09-11T01:30:18.248Z,101371.00
2022-09-11T01:33:34.732Z,101356.94
2022-09-11T01:36:46.069Z,101351.75
2022-09-11T01:39:31.674Z,101351.69
2022-09-11T01:42:24.000Z,101352.63
2022-09-11T01:45:04.396Z,101351.84
2022-09-11T01:47:56.463Z,101352.78
2022-09-11T01:50:40.363Z,101354.59
2022-09-11T01:53:36.962Z,101355.50
2022-09-11T01:56:26.411Z,101350.22
2022-09-11T01:59:19.458Z,101352.88
2022-09-11T02:02:20.478Z,101359.03
2022-09-11T02:05:31.850Z,101353.75
2022-09-11T02:08:22.855Z,101360.03
2022-09-11T02:11:14.496Z,101367.06
2022-09-11T02:14:29.440Z,101369.69
2022-09-11T02:17:48.900Z,101368.00
2022-09-11T02:20:35.376Z,101363.56
2022-09-11T02:23:26.538Z,101364.56
2022-09-11T02:26:08.777Z,101373.28
2022-09-11T02:28:57.127Z,101363.56
2022-09-11T02:31:39.005Z,101370.66
2022-09-11T02:34:34.279Z,101367.25
2022-09-11T02:37:38.963Z,101372.63
2022-09-11T02:40:44.068Z,101375.28
2022-09-11T02:44:08.407Z,101378.84
2022-09-11T02:47:08.477Z,101370.91
2022-09-11T02:50:11.758Z,101364.69
2022-09-11T02:53:11.398Z,101356.66
2022-09-11T02:55:55.106Z,101355.00
2022-09-11T02:59:02.506Z,101358.50
2022-09-11T03:02:06.457Z,101356.72
2022-09-11T03:04:53.613Z,101345.34
2022-09-11T03:07:34.410Z,101338.41
2022-09-11T03:10:22.524Z,101348.94
2022-09-11T03:13:07.448Z,101347.25
2022-09-11T03:15:59.075Z,101341.91
2022-09-11T03:18:39.773Z,101332.25
2022-09-11T03:21:29.542Z,101342.00
2022-09-11T03:24:11.418Z,101341.13
2022-09-11T03:26:59.751Z,101335.81
2022-09-11T03:29:41.430Z,101328.88
2022-09-11T03:32:29.542Z,101331.47
2022-09-11T03:35:11.196Z,101330.59
2022-09-11T03:38:00.569Z,101328.81
2022-09-11T03:40:45.585Z,101326.28
2022-09-11T03:43:33.675Z,101321.88
2022-09-11T03:46:14.432Z,101324.41
2022-09-11T03:49:02.911Z,101329.78
2022-09-11T03:51:46.568Z,101318.19
2022-09-11T03:54:35.590Z,101312.88
2022-09-11T03:57:16.475Z,101317.34
2022-09-11T04:00:05.131Z,101311.22
2022-09-11T04:03:10.444Z,101318.19
2022-09-11T04:06:04.587Z,101314.81
2022-09-11T04:08:57.808Z,101312.22
2022-09-11T04:11:40.166Z,101318.41
2022-09-11T04:14:33.434Z,101310.44
2022-09-11T04:17:14.578Z,101308.72
2022-09-11T04:20:04.529Z,101309.69
2022-09-11T04:22:47.826Z,101313.19
2022-09-11T04:25:37.444Z,101306.91
2022-09-11T04:28:18.534Z,101305.22
2022-09-11T04:31:10.454Z,101299.94
2022-09-11T04:33:54.764Z,101303.44
2022-09-11T04:36:47.457Z,101305.25
2022-09-11T04:39:30.807Z,101308.81
2022-09-11T04:42:18.557Z,101311.44
2022-09-11T04:45:01.749Z,101310.56
2022-09-11T04:47:50.843Z,101311.50
2022-09-11T04:50:31.627Z,101310.59
2022-09-11T04:53:33.496Z,101309.69
2022-09-11T04:56:21.215Z,101314.09
2022-09-11T04:59:12.863Z,101311.53
2022-09-11T05:02:12.461Z,101315.03
2022-09-11T05:05:05.868Z,101311.56
2022-09-11T05:07:49.234Z,101306.25
2022-09-11T05:10:37.499Z,101309.69
2022-09-11T05:13:18.642Z,101312.31
2022-09-11T05:16:10.891Z,101307.94
2022-09-11T05:18:57.610Z,101312.41
2022-09-11T05:21:51.051Z,101311.56
2022-09-11T05:24:31.605Z,101315.06
2022-09-11T05:27:20.476Z,101312.41
2022-09-11T05:30:02.327Z,101317.72
2022-09-11T05:32:50.885Z,101318.53
2022-09-11T05:35:33.591Z,101327.25
2022-09-11T05:38:21.516Z,101323.84
2022-09-11T05:41:05.643Z,101330.00
2022-09-11T05:43:54.490Z,101323.00
2022-09-11T05:46:39.600Z,101331.75
2022-09-11T05:49:28.470Z,101323.81
2022-09-11T05:52:11.302Z,101333.41
2022-09-11T05:54:59.883Z,101334.28
2022-09-11T05:57:40.605Z,101343.97
2022-09-11T06:00:37.508Z,101341.34
2022-09-11T06:03:33.548Z,101341.28
2022-09-11T06:06:24.490Z,101335.09
2022-09-11T06:09:05.772Z,101343.75
2022-09-11T06:11:55.500Z,101337.53
2022-09-11T06:14:38.310Z,101339.16
2022-09-11T06:17:28.536Z,101343.59
2022-09-11T06:20:12.393Z,101345.63
2022-09-11T06:23:07.353Z,101341.19
2022-09-11T06:25:49.664Z,101344.13
2022-09-11T06:28:37.563Z,101344.50
2022-09-11T06:31:22.225Z,101342.28
2022-09-11T06:34:10.500Z,101349.47
2022-09-11T06:36:52.504Z,101353.06
2022-09-11T06:39:43.589Z,101351.31
2022-09-11T06:42:29.648Z,101348.59
2022-09-11T06:45:18.517Z,101352.00
2022-09-11T06:47:59.715Z,101351.75
2022-09-11T06:50:47.529Z,101341.00
2022-09-11T06:53:28.625Z,101352.28
2022-09-11T06:56:24.554Z,101348.66
2022-09-11T06:59:07.958Z,101353.34
2022-09-11T07:01:57.378Z,101344.75
2022-09-11T07:04:53.537Z,101336.00
2022-09-11T07:07:41.612Z,101342.06
2022-09-11T07:10:23.750Z,101349.50
2022-09-11T07:13:14.295Z,101347.38
2022-09-11T07:16:08.194Z,101345.22
2022-09-11T07:18:58.998Z,101352.16
2022-09-11T07:21:39.906Z,101341.53
2022-09-11T07:24:27.759Z,101350.44
2022-09-11T07:27:08.710Z,101338.19
2022-09-11T07:30:01.072Z,101334.69
2022-09-11T07:32:45.166Z,101333.88
2022-09-11T07:35:34.136Z,101330.88
2022-09-11T07:38:14.644Z,101331.59
2022-09-11T07:41:06.419Z,101329.94
2022-09-11T07:43:50.815Z,101325.19
2022-09-11T07:46:39.633Z,101330.47
2022-09-11T07:49:21.675Z,101321.28
2022-09-11T07:52:16.816Z,101323.88
2022-09-11T07:55:13.493Z,101314.91
2022-09-11T07:58:03.549Z,101322.75
2022-09-11T08:00:45.826Z,101318.84
2022-09-11T08:03:41.545Z,101319.03
2022-09-11T08:06:30.098Z,101309.94
2022-09-11T08:09:16.961Z,101313.94
2022-09-11T08:12:03.037Z,101309.06
2022-09-11T08:14:50.938Z,101308.56
2022-09-11T08:17:40.987Z,101309.75
2022-09-11T08:20:22.340Z,101307.84
2022-09-11T08:23:10.094Z,101305.06
2022-09-11T08:25:50.644Z,101307.03
2022-09-11T08:28:38.644Z,101307.69
2022-09-11T08:31:20.171Z,101311.56
2022-09-11T08:34:09.699Z,101303.28
2022-09-11T08:36:53.034Z,101304.00
2022-09-11T08:39:44.816Z,101295.97
2022-09-11T08:42:26.944Z,101294.19
2022-09-11T08:45:14.854Z,101282.41
2022-09-11T08:48:01.088Z,101275.47
2022-09-11T08:50:53.335Z,101290.66
2022-09-11T08:53:40.457Z,101290.06
2022-09-11T08:56:36.239Z,101293.44
2022-09-11T08:59:27.601Z,101302.16
2022-09-11T09:02:47.545Z,101305.28
2022-09-11T09:05:56.997Z,101305.16
2022-09-11T09:09:18.783Z,101302.38
2022-09-11T09:12:17.380Z,101296.69
2022-09-11T09:15:11.612Z,101301.84
2022-09-11T09:18:08.033Z,101292.38
2022-09-11T09:20:56.738Z,101285.41
2022-09-11T09:24:01.579Z,101290.75
2022-09-11T09:26:49.923Z,101293.22
2022-09-11T09:29:48.093Z,101285.88
2022-09-11T09:32:52.093Z,101290.41
2022-09-11T09:35:49.847Z,101291.50
2022-09-11T09:38:42.767Z,101295.91
2022-09-11T09:42:10.649Z,101286.16
2022-09-11T09:45:24.767Z,101291.41
2022-09-11T09:48:16.559Z,101293.59
2022-09-11T09:51:04.189Z,101297.66
2022-09-11T09:53:59.646Z,101291.38
2022-09-11T09:56:43.206Z,101299.84
2022-09-11T09:59:41.681Z,101291.31
2022-09-11T10:03:00.784Z,101284.06
2022-09-11T10:05:51.420Z,101287.59
2022-09-11T10:08:40.778Z,101292.38
2022-09-11T10:11:36.227Z,101292.38
2022-09-11T10:14:49.801Z,101284.25
2022-09-11T10:17:35.642Z,101278.56
2022-09-11T10:20:23.173Z,101283.84
2022-09-11T10:23:32.860Z,101285.41
2022-09-11T10:26:14.563Z,101272.84
2022-09-11T10:29:20.014Z,101287.47
2022-09-11T10:32:02.763Z,101278.78
2022-09-11T10:34:49.654Z,101266.81
2022-09-11T10:37:39.097Z,101272.47
2022-09-11T10:40:29.646Z,101260.44
2022-09-11T10:43:11.815Z,101262.53
2022-09-11T10:46:25.901Z,101266.66
2022-09-11T10:49:27.836Z,101260.19
2022-09-11T10:52:17.116Z,101254.59
2022-09-11T10:55:15.687Z,101250.41
2022-09-11T10:58:12.042Z,101266.34
2022-09-11T11:00:53.371Z,101260.06
2022-09-11T11:03:48.744Z,101265.19
2022-09-11T11:06:53.791Z,101263.66
2022-09-11T11:10:22.676Z,101268.00
2022-09-11T11:13:31.267Z,101256.00
2022-09-11T11:16:53.702Z,101251.19
2022-09-11T11:20:07.662Z,101243.34
2022-09-11T11:23:16.627Z,101234.59
2022-09-11T11:26:22.002Z,101229.09
2022-09-11T11:29:42.837Z,101233.81
2022-09-11T11:32:30.416Z,101230.00
2022-09-11T11:35:42.830Z,101225.25
2022-09-11T11:38:33.485Z,101234.91
2022-09-11T11:41:33.471Z,101215.09
2022-09-11T11:44:21.833Z,101218.88
2022-09-11T11:47:16.698Z,101230.94
2022-09-11T11:50:32.030Z,101218.69
2022-09-11T11:53:38.123Z,101213.34
2022-09-11T11:56:46.935Z,101215.88
2022-09-11T12:00:02.225Z,101213.91
2022-09-11T12:03:05.719Z,101209.88
2022-09-11T12:05:53.706Z,101210.19
2022-09-11T12:08:34.814Z,101205.16
2022-09-11T12:11:33.863Z,101207.50
2022-09-11T12:14:35.370Z,101202.44
2022-09-11T12:17:26.935Z,101199.66
2022-09-11T12:20:21.989Z,101206.88
2022-09-11T12:23:13.290Z,101194.41
2022-09-11T12:25:58.605Z,101193.53
2022-09-11T12:28:47.720Z,101178.34
2022-09-11T12:31:28.972Z,101183.81
2022-09-11T12:34:24.167Z,101186.47
2022-09-11T12:37:12.607Z,101185.44
2022-09-11T12:40:24.109Z,101188.75
2022-09-11T12:43:23.048Z,101188.34
2022-09-11T12:46:42.131Z,101179.72
2022-09-11T12:49:28.222Z,101176.53
2022-09-11T12:52:32.843Z,101171.09
2022-09-11T12:55:33.923Z,101157.53
2022-09-11T12:58:51.475Z,101168.59
2022-09-11T13:01:42.016Z,101161.34
2022-09-11T13:04:41.744Z,101163.53
2022-09-11T13:07:32.880Z,101155.94
2022-09-11T13:10:28.481Z,101149.38
2022-09-11T13:13:36.712Z,101148.25
2022-09-11T13:16:43.764Z,101138.28
2022-09-11T13:19:42.944Z,101131.97
2022-09-11T13:22:35.052Z,101136.34
2022-09-11T13:25:31.536Z,101132.72
2022-09-11T13:28:20.292Z,101119.28
2022-09-11T13:31:10.769Z,101118.84
2022-09-11T13:33:57.774Z,101120.88
2022-09-11T13:36:49.991Z,101107.44
2022-09-11T13:39:33.769Z,101101.22
2022-09-11T13:42:25.858Z,101100.34
2022-09-11T13:45:10.542Z,101112.22
2022-09-11T13:47:59.289Z,101100.03
2022-09-11T13:50:39.741Z,101096.31
2022-09-11T13:53:30.303Z,101092.47
2022-09-11T13:56:10.760Z,101087.28
2022-09-11T13:59:02.624Z,101075.50
2022-09-11T14:01:44.254Z,101088.41
2022-09-11T14:04:41.790Z,101092.00
2022-09-11T14:07:32.543Z,101077.00
2022-09-11T14:10:23.884Z,101071.50
2022-09-11T14:13:29.780Z,101075.75
2022-09-11T14:16:19.923Z,101061.19
2022-09-11T14:19:24.822Z,101060.88
2022-09-11T14:22:05.893Z,101065.88
2022-09-11T14:25:02.969Z,101058.41
2022-09-11T14:27:50.097Z,101064.63
2022-09-11T14:30:40.807Z,101052.97
2022-09-11T14:33:31.368Z,101051.91
2022-09-11T14:36:26.878Z,101056.38
2022-09-11T14:39:10.433Z,101059.00
2022-09-11T14:41:58.323Z,101043.09
2022-09-11T14:44:40.371Z,101045.63
2022-09-11T14:47:30.787Z,101042.16
2022-09-11T14:50:12.621Z,101043.88
2022-09-11T14:53:02.353Z,101041.13
2022-09-11T14:55:43.610Z,101033.25
2022-09-11T14:58:35.804Z,101031.66
2022-09-11T15:01:20.658Z,101028.78
2022-09-11T15:04:14.889Z,101026.81
2022-09-11T15:07:01.907Z,101016.81
2022-09-11T15:09:44.565Z,101014.81
2022-09-11T15:12:34.714Z,101000.69
2022-09-11T15:15:25.322Z,100987.47
2022-09-11T15:18:15.953Z,100991.09
2022-09-11T15:21:00.954Z,100980.66
2022-09-11T15:23:50.122Z,100977.19
2022-09-11T15:26:31.296Z,100980.97
2022-09-11T15:29:17.936Z,100980.81
2022-09-11T15:32:00.838Z,100980.72
2022-09-11T15:34:48.976Z,100958.47
2022-09-11T15:37:31.698Z,100961.75
2022-09-11T15:40:20.014Z,100969.00
2022-09-11T15:43:05.112Z,100967.09
2022-09-11T15:45:53.107Z,100958.53
2022-09-11T15:48:38.246Z,100957.50
2022-09-11T15:51:27.970Z,100955.28
2022-09-11T15:54:09.849Z,100961.75
2022-09-11T15:57:02.906Z,100951.03
2022-09-11T15:59:44.604Z,100953.72
2022-09-11T16:02:32.027Z,100947.59
2022-09-11T16:05:28.341Z,100950.25
2022-09-11T16:08:17.374Z,100949.66
2022-09-11T16:10:59.849Z,100943.44
2022-09-11T16:13:46.934Z,100942.69
2022-09-11T16:16:27.877Z,100941.53
2022-09-11T16:19:17.526Z,100944.22
2022-09-11T16:21:57.871Z,100933.97
2022-09-11T16:24:45.095Z,100933.69
2022-09-11T16:27:26.654Z,100934.59
2022-09-11T16:30:42.222Z,100932.72
2022-09-11T16:33:19.257Z,100936.97
2022-09-11T16:36:17.088Z,100924.53
2022-09-11T16:38:58.880Z,100926.56
2022-09-11T16:41:47.128Z,100930.25
2022-09-11T16:44:29.874Z,100919.81
2022-09-11T16:47:17.016Z,100932.56
2022-09-11T16:50:13.622Z,100929.16
2022-09-11T16:53:02.361Z,100927.72
2022-09-11T16:55:47.619Z,100923.31
2022-09-11T16:58:37.005Z,100921.44
2022-09-11T17:01:23.711Z,100911.53
2022-09-11T17:04:19.864Z,100913.03
2022-09-11T17:07:09.283Z,100918.44
2022-09-11T17:09:51.983Z,100916.34
2022-09-11T17:12:39.869Z,100913.03
2022-09-11T17:15:21.421Z,100909.72
2022-09-11T17:18:08.282Z,100903.72
2022-09-11T17:20:50.027Z,100910.34
2022-09-11T17:23:41.900Z,100904.44
2022-09-11T17:26:26.855Z,100905.38
2022-09-11T17:29:15.716Z,100900.59
2022-09-11T17:32:23.740Z,100898.53
2022-09-11T17:38:09.646Z,100888.31
2022-09-11T17:41:02.496Z,100881.69
2022-09-11T17:43:43.029Z,100887.13
2022-09-11T17:46:32.196Z,100887.44
2022-09-11T17:49:13.586Z,100885.94
2022-09-11T17:52:00.885Z,100877.69
2022-09-11T17:54:42.728Z,100872.31
2022-09-11T17:57:33.436Z,100867.56
2022-09-11T18:00:14.728Z,100871.22
2022-09-11T18:03:04.930Z,100867.75
2022-09-11T18:05:58.934Z,100869.88
2022-09-11T18:08:48.281Z,100872.84
2022-09-11T18:11:30.765Z,100863.25
2022-09-11T18:14:21.672Z,100861.72
2022-09-11T18:17:03.049Z,100856.53
2022-09-11T18:19:52.058Z,100853.94
2022-09-11T18:22:34.339Z,100861.97
2022-09-11T18:25:29.051Z,100860.53
2022-09-11T18:28:11.189Z,100856.28
2022-09-11T18:30:59.275Z,100856.28
2022-09-11T18:33:41.644Z,100860.69
2022-09-11T18:36:33.675Z,100862.41
2022-09-11T18:39:13.072Z,100862.34
2022-09-11T18:42:02.070Z,100869.47
2022-09-11T18:44:44.420Z,100872.00
2022-09-11T18:47:34.026Z,100872.88
2022-09-11T18:50:15.065Z,100874.13
2022-09-11T18:53:02.962Z,100877.00
2022-09-11T18:55:44.123Z,100881.94
2022-09-11T18:58:38.950Z,100881.75
2022-09-11T19:01:22.808Z,100884.75
2022-09-11T19:04:26.189Z,100877.16
2022-09-11T19:07:15.896Z,100885.16
2022-09-11T19:10:00.119Z,100883.88
2022-09-11T19:12:55.071Z,100880.50
2022-09-11T19:15:37.965Z,100876.97
2022-09-11T19:18:25.145Z,100873.84
2022-09-11T19:21:09.993Z,100884.91
2022-09-11T19:24:01.609Z,100881.66
2022-09-11T19:26:46.964Z,100874.72
2022-09-11T19:29:34.549Z,100881.19
2022-09-11T19:32:15.435Z,100880.41
2022-09-11T19:35:04.075Z,100880.81
2022-09-11T19:37:44.993Z,100884.53
2022-09-11T19:40:33.420Z,100874.38
2022-09-11T19:43:16.499Z,100876.38
2022-09-11T19:46:12.881Z,100872.19
2022-09-11T19:48:54.967Z,100869.75
2022-09-11T19:51:46.130Z,100871.00
2022-09-11T19:54:27.426Z,100880.19
2022-09-11T19:57:14.144Z,100871.25
2022-09-11T19:59:55.394Z,100873.19
2022-09-11T20:02:46.594Z,100875.25
2022-09-11T20:05:44.112Z,100876.28
2022-09-11T20:08:32.114Z,100880.06
2022-09-11T20:11:13.994Z,100879.53
2022-09-11T20:14:02.337Z,100873.34
2022-09-11T20:16:42.988Z,100871.69
2022-09-11T20:19:32.091Z,100875.28
2022-09-11T20:22:13.775Z,100878.00
2022-09-11T20:25:02.585Z,100878.13
2022-09-11T20:27:45.748Z,100874.03
2022-09-11T20:30:38.188Z,100877.09
2022-09-11T20:33:20.203Z,100878.78
2022-09-11T20:36:08.923Z,100880.94
2022-09-11T20:38:51.371Z,100879.00
2022-09-11T20:41:39.409Z,100884.56
2022-09-11T20:44:20.013Z,100874.16
2022-09-11T20:47:11.687Z,100879.69
2022-09-11T20:49:52.385Z,100869.34
2022-09-11T20:52:39.759Z,100872.22
2022-09-11T20:55:24.032Z,100873.19
2022-09-11T20:58:12.172Z,100871.72
2022-09-11T21:00:53.041Z,100866.81
2022-09-11T21:03:48.006Z,100857.16
2022-09-11T21:06:45.757Z,100866.75
2022-09-11T21:09:33.212Z,100867.91
2022-09-11T21:12:15.711Z,100867.44
2022-09-11T21:15:04.238Z,100863.34
2022-09-11T21:17:45.420Z,100859.25
2022-09-11T21:20:34.451Z,100859.75
2022-09-11T21:23:15.808Z,100861.78
2022-09-11T21:26:04.123Z,100870.00
2022-09-11T21:28:45.055Z,100862.50
2022-09-11T21:31:34.965Z,100865.59
2022-09-11T21:34:16.050Z,100862.19
2022-09-11T21:37:06.161Z,100864.41
2022-09-11T21:39:47.085Z,100858.44
2022-09-11T21:42:38.021Z,100855.88
2022-09-11T21:45:20.215Z,100852.59
2022-09-11T21:48:09.573Z,100856.91
2022-09-11T21:50:50.412Z,100856.88
2022-09-11T21:53:39.179Z,100852.88
2022-09-11T21:56:36.066Z,100847.53
2022-09-11T21:59:24.513Z,100855.13
2022-09-11T22:02:06.540Z,100846.88
2022-09-11T22:05:02.051Z,100852.41
2022-09-11T22:07:49.858Z,100843.13
2022-09-11T22:10:33.163Z,100842.28
2022-09-11T22:13:23.239Z,100833.50
2022-09-11T22:16:09.563Z,100831.59
2022-09-11T22:18:59.056Z,100825.91
2022-09-11T22:21:40.657Z,100830.63
2022-09-11T22:24:29.843Z,100834.03
2022-09-11T22:27:12.292Z,100833.34
2022-09-11T22:30:01.811Z,100833.13
2022-09-11T22:32:42.200Z,100829.81
2022-09-11T22:35:30.150Z,100834.19
2022-09-11T22:38:11.958Z,100841.66
2022-09-11T22:41:00.104Z,100824.50
2022-09-11T22:43:41.287Z,100832.69
2022-09-11T22:46:29.675Z,100830.94
2022-09-11T22:49:10.599Z,100826.22
2022-09-11T22:51:59.107Z,100826.47
2022-09-11T22:54:40.228Z,100831.28
2022-09-11T22:57:29.322Z,100837.47
2022-09-11T23:00:15.883Z,100833.63
2022-09-11T23:03:03.455Z,100820.66
2022-09-11T23:06:08.980Z,100820.47
2022-09-11T23:08:52.500Z,100827.97
2022-09-11T23:11:39.807Z,100829.00
2022-09-11T23:14:22.090Z,100832.97
2022-09-11T23:17:09.183Z,100820.09
2022-09-11T23:19:50.101Z,100824.50
2022-09-11T23:22:37.829Z,100815.56
2022-09-11T23:25:18.127Z,100809.34
2022-09-11T23:28:06.251Z,100807.78
2022-09-11T23:30:48.132Z,100809.41
2022-09-11T23:33:36.679Z,100815.59
2022-09-11T23:36:19.637Z,100816.56
2022-09-11T23:39:07.201Z,100807.13
2022-09-11T23:41:50.494Z,100815.78
2022-09-11T23:44:39.915Z,100798.34
2022-09-11T23:47:21.228Z,100806.75
2022-09-11T23:50:08.222Z,100801.91
2022-09-11T23:52:49.134Z,100800.03
2022-09-11T23:55:42.382Z,100801.97
2022-09-11T23:58:24.587Z,100798.44
